sensor_id;sensor_type;location;lat;lon;timestamp;temperature;humidity
10300;DHT22;5195;48.562;9.192;2023-05-10T00:00:54;17.30;66.90
10300;DHT22;5195;48.562;9.192;2023-05-10T00:03:21;17.40;65.60
10300;DHT22;5195;48.562;9.192;2023-05-10T00:05:48;17.40;65.60
10300;DHT22;5195;48.562;9.192;2023-05-10T00:08:14;17.60;64.30
10300;DHT22;5195;48.562;9.192;2023-05-10T00:10:39;17.80;63.40
10300;DHT22;5195;48.562;9.192;2023-05-10T00:13:06;17.50;64.90
10300;DHT22;5195;48.562;9.192;2023-05-10T00:15:31;17.50;64.90
10300;DHT22;5195;48.562;9.192;2023-05-10T00:17:57;17.30;65.80
10300;DHT22;5195;48.562;9.192;2023-05-10T00:20:23;17.30;65.20
10300;DHT22;5195;48.562;9.192;2023-05-10T00:22:49;17.30;65.10
10300;DHT22;5195;48.562;9.192;2023-05-10T00:25:15;17.30;65.80
10300;DHT22;5195;48.562;9.192;2023-05-10T00:27:42;17.80;63.40
10300;DHT22;5195;48.562;9.192;2023-05-10T00:30:08;17.80;63.70
10300;DHT22;5195;48.562;9.192;2023-05-10T00:32:34;18.20;62.50
10300;DHT22;5195;48.562;9.192;2023-05-10T00:34:59;18.10;61.80
10300;DHT22;5195;48.562;9.192;2023-05-10T00:37:26;18.30;61.10
10300;DHT22;5195;48.562;9.192;2023-05-10T00:39:51;18.30;61.10
10300;DHT22;5195;48.562;9.192;2023-05-10T00:42:17;18.30;60.70
10300;DHT22;5195;48.562;9.192;2023-05-10T00:44:42;18.30;60.60
10300;DHT22;5195;48.562;9.192;2023-05-10T00:47:09;18.30;60.00
10300;DHT22;5195;48.562;9.192;2023-05-10T00:49:34;18.30;60.00
10300;DHT22;5195;48.562;9.192;2023-05-10T00:52:01;18.00;61.10
10300;DHT22;5195;48.562;9.192;2023-05-10T00:54:27;17.70;62.50
10300;DHT22;5195;48.562;9.192;2023-05-10T00:56:53;17.70;62.40
10300;DHT22;5195;48.562;9.192;2023-05-10T00:59:19;17.70;62.20
10300;DHT22;5195;48.562;9.192;2023-05-10T01:01:46;17.90;61.50
10300;DHT22;5195;48.562;9.192;2023-05-10T01:04:11;17.80;61.20
10300;DHT22;5195;48.562;9.192;2023-05-10T01:06:38;18.10;60.30
10300;DHT22;5195;48.562;9.192;2023-05-10T01:09:03;18.10;60.30
10300;DHT22;5195;48.562;9.192;2023-05-10T01:11:29;18.20;60.20
10300;DHT22;5195;48.562;9.192;2023-05-10T01:13:55;18.20;60.10
10300;DHT22;5195;48.562;9.192;2023-05-10T01:16:20;17.90;60.80
10300;DHT22;5195;48.562;9.192;2023-05-10T01:18:46;17.60;62.20
10300;DHT22;5195;48.562;9.192;2023-05-10T01:21:38;17.60;62.20
10300;DHT22;5195;48.562;9.192;2023-05-10T01:29:11;18.10;60.70
10300;DHT22;5195;48.562;9.192;2023-05-10T01:32:03;17.80;61.40
10300;DHT22;5195;48.562;9.192;2023-05-10T01:34:27;17.50;62.80
10300;DHT22;5195;48.562;9.192;2023-05-10T01:36:52;17.50;62.50
10300;DHT22;5195;48.562;9.192;2023-05-10T01:39:24;17.70;62.00
10300;DHT22;5195;48.562;9.192;2023-05-10T01:41:51;17.60;62.50
10300;DHT22;5195;48.562;9.192;2023-05-10T01:44:16;17.60;62.30
10300;DHT22;5195;48.562;9.192;2023-05-10T01:46:41;17.50;62.40
10300;DHT22;5195;48.562;9.192;2023-05-10T01:49:15;17.50;62.10
10300;DHT22;5195;48.562;9.192;2023-05-10T01:51:38;17.50;62.60
10300;DHT22;5195;48.562;9.192;2023-05-10T01:54:02;17.50;62.60
10300;DHT22;5195;48.562;9.192;2023-05-10T01:56:28;17.70;61.60
10300;DHT22;5195;48.562;9.192;2023-05-10T01:58:52;17.50;62.10
10300;DHT22;5195;48.562;9.192;2023-05-10T02:01:18;17.20;63.20
10300;DHT22;5195;48.562;9.192;2023-05-10T02:03:43;17.00;64.30
10300;DHT22;5195;48.562;9.192;2023-05-10T02:06:10;17.10;62.50
10300;DHT22;5195;48.562;9.192;2023-05-10T02:08:36;17.40;61.30
10300;DHT22;5195;48.562;9.192;2023-05-10T02:11:01;17.30;61.80
10300;DHT22;5195;48.562;9.192;2023-05-10T02:13:27;17.00;62.60
10300;DHT22;5195;48.562;9.192;2023-05-10T02:15:54;16.80;63.60
10300;DHT22;5195;48.562;9.192;2023-05-10T02:18:20;17.20;61.80
10300;DHT22;5195;48.562;9.192;2023-05-10T02:20:46;17.20;61.80
10300;DHT22;5195;48.562;9.192;2023-05-10T02:23:11;17.10;62.20
10300;DHT22;5195;48.562;9.192;2023-05-10T02:25:37;17.20;61.60
10300;DHT22;5195;48.562;9.192;2023-05-10T02:28:03;17.10;62.10
10300;DHT22;5195;48.562;9.192;2023-05-10T02:30:28;16.60;63.80
10300;DHT22;5195;48.562;9.192;2023-05-10T02:32:54;16.60;63.80
10300;DHT22;5195;48.562;9.192;2023-05-10T02:35:20;16.50;64.70
10300;DHT22;5195;48.562;9.192;2023-05-10T02:37:45;16.30;65.20
10300;DHT22;5195;48.562;9.192;2023-05-10T02:40:11;16.50;63.60
10300;DHT22;5195;48.562;9.192;2023-05-10T02:42:37;16.90;62.20
10300;DHT22;5195;48.562;9.192;2023-05-10T02:45:04;16.80;62.60
10300;DHT22;5195;48.562;9.192;2023-05-10T02:47:30;17.00;61.80
10300;DHT22;5195;48.562;9.192;2023-05-10T02:50:00;17.00;61.70
10300;DHT22;5195;48.562;9.192;2023-05-10T02:52:27;17.00;61.70
10300;DHT22;5195;48.562;9.192;2023-05-10T02:54:52;16.90;62.20
10300;DHT22;5195;48.562;9.192;2023-05-10T02:57:17;17.00;61.60
10300;DHT22;5195;48.562;9.192;2023-05-10T02:59:47;16.90;62.20
10300;DHT22;5195;48.562;9.192;2023-05-10T03:02:12;16.60;63.00
10300;DHT22;5195;48.562;9.192;2023-05-10T03:04:38;16.70;61.80
10300;DHT22;5195;48.562;9.192;2023-05-10T03:07:04;17.00;60.80
10300;DHT22;5195;48.562;9.192;2023-05-10T03:09:29;17.20;60.10
10300;DHT22;5195;48.562;9.192;2023-05-10T03:15:00;16.80;61.10
10300;DHT22;5195;48.562;9.192;2023-05-10T03:17:30;16.80;61.00
10300;DHT22;5195;48.562;9.192;2023-05-10T03:20:03;16.90;60.70
10300;DHT22;5195;48.562;9.192;2023-05-10T03:22:30;16.80;61.20
10300;DHT22;5195;48.562;9.192;2023-05-10T03:24:55;16.80;61.20
10300;DHT22;5195;48.562;9.192;2023-05-10T03:27:19;17.00;60.30
10300;DHT22;5195;48.562;9.192;2023-05-10T03:29:45;16.90;61.00
10300;DHT22;5195;48.562;9.192;2023-05-10T03:32:10;16.90;60.60
10300;DHT22;5195;48.562;9.192;2023-05-10T03:34:40;16.80;61.50
10300;DHT22;5195;48.562;9.192;2023-05-10T03:37:03;16.80;60.40
10300;DHT22;5195;48.562;9.192;2023-05-10T03:39:29;17.20;59.20
10300;DHT22;5195;48.562;9.192;2023-05-10T03:41:54;17.10;59.10
10300;DHT22;5195;48.562;9.192;2023-05-10T03:44:20;16.90;59.90
10300;DHT22;5195;48.562;9.192;2023-05-10T03:46:46;16.40;62.20
10300;DHT22;5195;48.562;9.192;2023-05-10T03:49:12;16.30;62.10
10300;DHT22;5195;48.562;9.192;2023-05-10T03:51:37;16.50;61.20
10300;DHT22;5195;48.562;9.192;2023-05-10T03:54:03;16.80;60.60
10300;DHT22;5195;48.562;9.192;2023-05-10T03:56:30;16.70;61.00
10300;DHT22;5195;48.562;9.192;2023-05-10T03:58:56;17.00;59.70
10300;DHT22;5195;48.562;9.192;2023-05-10T04:01:22;17.00;60.00
10300;DHT22;5195;48.562;9.192;2023-05-10T04:03:47;16.80;60.20
10300;DHT22;5195;48.562;9.192;2023-05-10T04:06:13;16.50;61.20
10300;DHT22;5195;48.562;9.192;2023-05-10T04:08:38;16.60;60.20
10300;DHT22;5195;48.562;9.192;2023-05-10T04:11:05;16.50;60.80
10300;DHT22;5195;48.562;9.192;2023-05-10T04:13:30;16.60;60.60
10300;DHT22;5195;48.562;9.192;2023-05-10T04:15:57;16.90;60.60
10300;DHT22;5195;48.562;9.192;2023-05-10T04:18:24;17.10;60.10
10300;DHT22;5195;48.562;9.192;2023-05-10T04:20:49;17.20;59.40
10300;DHT22;5195;48.562;9.192;2023-05-10T04:23:15;16.70;61.30
10300;DHT22;5195;48.562;9.192;2023-05-10T04:25:41;16.70;61.30
10300;DHT22;5195;48.562;9.192;2023-05-10T04:28:07;16.40;62.50
10300;DHT22;5195;48.562;9.192;2023-05-10T04:30:32;16.20;63.40
10300;DHT22;5195;48.562;9.192;2023-05-10T04:32:59;16.00;65.30
10300;DHT22;5195;48.562;9.192;2023-05-10T04:35:25;16.00;64.70
10300;DHT22;5195;48.562;9.192;2023-05-10T04:37:50;16.20;64.30
10300;DHT22;5195;48.562;9.192;2023-05-10T04:40:16;16.60;63.50
10300;DHT22;5195;48.562;9.192;2023-05-10T04:42:41;16.70;63.70
10300;DHT22;5195;48.562;9.192;2023-05-10T04:45:07;16.50;64.20
10300;DHT22;5195;48.562;9.192;2023-05-10T04:47:33;16.70;63.60
10300;DHT22;5195;48.562;9.192;2023-05-10T04:49:58;16.70;63.80
10300;DHT22;5195;48.562;9.192;2023-05-10T04:52:24;16.80;62.80
10300;DHT22;5195;48.562;9.192;2023-05-10T04:54:49;17.10;62.20
10300;DHT22;5195;48.562;9.192;2023-05-10T04:57:15;17.00;63.20
10300;DHT22;5195;48.562;9.192;2023-05-10T04:59:41;16.90;62.90
10300;DHT22;5195;48.562;9.192;2023-05-10T05:02:08;16.90;62.90
10300;DHT22;5195;48.562;9.192;2023-05-10T05:04:35;17.50;60.90
10300;DHT22;5195;48.562;9.192;2023-05-10T05:07:00;17.50;60.90
10300;DHT22;5195;48.562;9.192;2023-05-10T05:09:26;17.70;61.00
10300;DHT22;5195;48.562;9.192;2023-05-10T05:11:52;17.90;59.60
10300;DHT22;5195;48.562;9.192;2023-05-10T05:14:19;17.90;59.60
10300;DHT22;5195;48.562;9.192;2023-05-10T05:16:45;18.00;59.30
10300;DHT22;5195;48.562;9.192;2023-05-10T05:19:10;18.10;58.70
10300;DHT22;5195;48.562;9.192;2023-05-10T05:21:36;18.10;57.80
10300;DHT22;5195;48.562;9.192;2023-05-10T05:24:02;17.70;58.80
10300;DHT22;5195;48.562;9.192;2023-05-10T05:26:29;17.50;59.80
10300;DHT22;5195;48.562;9.192;2023-05-10T05:28:54;17.50;59.80
10300;DHT22;5195;48.562;9.192;2023-05-10T05:31:20;17.20;61.00
10300;DHT22;5195;48.562;9.192;2023-05-10T05:33:45;17.00;62.10
10300;DHT22;5195;48.562;9.192;2023-05-10T05:36:11;17.10;61.40
10300;DHT22;5195;48.562;9.192;2023-05-10T05:38:36;17.20;61.90
10300;DHT22;5195;48.562;9.192;2023-05-10T05:41:02;17.30;61.10
10300;DHT22;5195;48.562;9.192;2023-05-10T05:43:28;17.60;61.00
10300;DHT22;5195;48.562;9.192;2023-05-10T05:45:54;17.80;60.20
10300;DHT22;5195;48.562;9.192;2023-05-10T05:48:19;18.00;59.80
10300;DHT22;5195;48.562;9.192;2023-05-10T05:50:46;17.80;60.30
10300;DHT22;5195;48.562;9.192;2023-05-10T05:53:13;17.50;61.30
10300;DHT22;5195;48.562;9.192;2023-05-10T05:55:39;17.70;60.20
10300;DHT22;5195;48.562;9.192;2023-05-10T05:58:05;17.70;60.20
10300;DHT22;5195;48.562;9.192;2023-05-10T06:00:30;17.60;60.60
10300;DHT22;5195;48.562;9.192;2023-05-10T06:02:56;17.80;59.50
10300;DHT22;5195;48.562;9.192;2023-05-10T06:05:22;17.80;59.50
10300;DHT22;5195;48.562;9.192;2023-05-10T06:07:49;17.60;60.20
10300;DHT22;5195;48.562;9.192;2023-05-10T06:10:14;17.30;61.30
10300;DHT22;5195;48.562;9.192;2023-05-10T06:12:41;16.80;63.70
10300;DHT22;5195;48.562;9.192;2023-05-10T06:15:07;16.80;63.30
10300;DHT22;5195;48.562;9.192;2023-05-10T06:17:32;17.10;62.70
10300;DHT22;5195;48.562;9.192;2023-05-10T06:19:58;17.10;62.90
10300;DHT22;5195;48.562;9.192;2023-05-10T06:22:23;17.30;61.80
10300;DHT22;5195;48.562;9.192;2023-05-10T06:24:49;17.70;60.80
10300;DHT22;5195;48.562;9.192;2023-05-10T06:27:14;17.60;61.20
10300;DHT22;5195;48.562;9.192;2023-05-10T06:29:41;17.60;61.10
10300;DHT22;5195;48.562;9.192;2023-05-10T06:32:06;17.60;61.10
10300;DHT22;5195;48.562;9.192;2023-05-10T06:34:32;17.70;60.80
10300;DHT22;5195;48.562;9.192;2023-05-10T06:36:57;17.60;61.30
10300;DHT22;5195;48.562;9.192;2023-05-10T06:39:23;17.70;60.40
10300;DHT22;5195;48.562;9.192;2023-05-10T06:41:49;17.70;61.00
10300;DHT22;5195;48.562;9.192;2023-05-10T06:44:16;17.70;59.80
10300;DHT22;5195;48.562;9.192;2023-05-10T06:46:41;18.00;59.20
10300;DHT22;5195;48.562;9.192;2023-05-10T06:49:08;17.60;60.90
10300;DHT22;5195;48.562;9.192;2023-05-10T06:51:33;17.60;60.90
10300;DHT22;5195;48.562;9.192;2023-05-10T06:53:59;17.40;61.90
10300;DHT22;5195;48.562;9.192;2023-05-10T06:56:24;17.30;62.70
10300;DHT22;5195;48.562;9.192;2023-05-10T06:58:51;17.40;61.20
10300;DHT22;5195;48.562;9.192;2023-05-10T07:01:16;17.40;61.20
10300;DHT22;5195;48.562;9.192;2023-05-10T07:03:42;17.50;61.50
10300;DHT22;5195;48.562;9.192;2023-05-10T07:06:07;17.40;62.10
10300;DHT22;5195;48.562;9.192;2023-05-10T07:08:33;17.70;61.00
10300;DHT22;5195;48.562;9.192;2023-05-10T07:11:02;18.10;59.30
10300;DHT22;5195;48.562;9.192;2023-05-10T07:13:27;18.10;59.80
10300;DHT22;5195;48.562;9.192;2023-05-10T07:15:53;17.90;60.70
10300;DHT22;5195;48.562;9.192;2023-05-10T07:18:19;17.70;62.10
10300;DHT22;5195;48.562;9.192;2023-05-10T07:20:45;17.70;62.10
10300;DHT22;5195;48.562;9.192;2023-05-10T07:23:10;17.60;62.60
10300;DHT22;5195;48.562;9.192;2023-05-10T07:25:36;17.60;62.70
10300;DHT22;5195;48.562;9.192;2023-05-10T07:28:02;17.50;62.90
10300;DHT22;5195;48.562;9.192;2023-05-10T07:30:27;17.80;60.30
10300;DHT22;5195;48.562;9.192;2023-05-10T07:32:53;17.90;60.50
10300;DHT22;5195;48.562;9.192;2023-05-10T07:35:18;18.10;58.90
10300;DHT22;5195;48.562;9.192;2023-05-10T07:37:44;18.00;59.40
10300;DHT22;5195;48.562;9.192;2023-05-10T07:40:09;18.20;58.40
10300;DHT22;5195;48.562;9.192;2023-05-10T07:42:36;18.10;59.00
10300;DHT22;5195;48.562;9.192;2023-05-10T07:45:02;18.30;58.10
10300;DHT22;5195;48.562;9.192;2023-05-10T07:47:27;18.50;58.00
10300;DHT22;5195;48.562;9.192;2023-05-10T07:49:53;18.70;57.10
10300;DHT22;5195;48.562;9.192;2023-05-10T07:52:19;18.90;55.90
10300;DHT22;5195;48.562;9.192;2023-05-10T07:54:44;18.70;56.80
10300;DHT22;5195;48.562;9.192;2023-05-10T07:57:10;18.70;56.20
10300;DHT22;5195;48.562;9.192;2023-05-10T07:59:36;19.00;56.00
10300;DHT22;5195;48.562;9.192;2023-05-10T08:02:02;19.00;56.00
10300;DHT22;5195;48.562;9.192;2023-05-10T08:04:27;18.80;56.90
10300;DHT22;5195;48.562;9.192;2023-05-10T08:06:53;18.80;56.00
10300;DHT22;5195;48.562;9.192;2023-05-10T08:09:18;18.60;56.90
10300;DHT22;5195;48.562;9.192;2023-05-10T08:11:44;18.70;56.50
10300;DHT22;5195;48.562;9.192;2023-05-10T08:14:09;18.60;57.40
10300;DHT22;5195;48.562;9.192;2023-05-10T08:16:35;18.30;58.10
10300;DHT22;5195;48.562;9.192;2023-05-10T08:19:01;18.10;58.90
10300;DHT22;5195;48.562;9.192;2023-05-10T08:21:26;18.20;57.20
10300;DHT22;5195;48.562;9.192;2023-05-10T08:23:52;18.50;56.50
10300;DHT22;5195;48.562;9.192;2023-05-10T08:26:17;18.50;57.30
10300;DHT22;5195;48.562;9.192;2023-05-10T08:28:43;18.60;55.80
10300;DHT22;5195;48.562;9.192;2023-05-10T08:31:08;18.80;55.30
10300;DHT22;5195;48.562;9.192;2023-05-10T08:33:34;18.80;56.20
10300;DHT22;5195;48.562;9.192;2023-05-10T08:36:00;18.80;56.70
10300;DHT22;5195;48.562;9.192;2023-05-10T08:38:26;18.80;56.70
10300;DHT22;5195;48.562;9.192;2023-05-10T08:40:51;18.70;57.80
10300;DHT22;5195;48.562;9.192;2023-05-10T08:43:17;18.90;55.60
10300;DHT22;5195;48.562;9.192;2023-05-10T08:45:43;19.20;54.40
10300;DHT22;5195;48.562;9.192;2023-05-10T08:48:09;19.20;55.60
10300;DHT22;5195;48.562;9.192;2023-05-10T08:50:38;19.10;56.60
10300;DHT22;5195;48.562;9.192;2023-05-10T08:53:09;19.70;55.20
10300;DHT22;5195;48.562;9.192;2023-05-10T08:55:33;20.10;54.10
10300;DHT22;5195;48.562;9.192;2023-05-10T08:57:58;20.00;54.00
10300;DHT22;5195;48.562;9.192;2023-05-10T09:00:23;20.00;54.80
10300;DHT22;5195;48.562;9.192;2023-05-10T09:02:49;19.80;55.50
10300;DHT22;5195;48.562;9.192;2023-05-10T09:05:15;19.90;53.60
10300;DHT22;5195;48.562;9.192;2023-05-10T09:07:40;19.90;54.70
10300;DHT22;5195;48.562;9.192;2023-05-10T09:10:06;20.10;52.80
10300;DHT22;5195;48.562;9.192;2023-05-10T09:12:33;20.40;52.70
10300;DHT22;5195;48.562;9.192;2023-05-10T09:14:59;20.30;53.20
10300;DHT22;5195;48.562;9.192;2023-05-10T09:17:24;20.30;51.60
10300;DHT22;5195;48.562;9.192;2023-05-10T09:19:56;20.20;52.90
10300;DHT22;5195;48.562;9.192;2023-05-10T09:22:16;19.90;53.60
10300;DHT22;5195;48.562;9.192;2023-05-10T09:24:42;19.70;54.20
10300;DHT22;5195;48.562;9.192;2023-05-10T09:27:07;19.80;52.40
10300;DHT22;5195;48.562;9.192;2023-05-10T09:29:42;20.10;51.50
10300;DHT22;5195;48.562;9.192;2023-05-10T09:32:08;20.10;53.00
10300;DHT22;5195;48.562;9.192;2023-05-10T09:34:33;19.90;53.80
10300;DHT22;5195;48.562;9.192;2023-05-10T09:37:00;19.70;54.40
10300;DHT22;5195;48.562;9.192;2023-05-10T09:39:35;19.80;51.60
10300;DHT22;5195;48.562;9.192;2023-05-10T09:42:01;20.20;51.20
10300;DHT22;5195;48.562;9.192;2023-05-10T09:44:25;20.10;52.30
10300;DHT22;5195;48.562;9.192;2023-05-10T09:46:51;20.00;53.40
10300;DHT22;5195;48.562;9.192;2023-05-10T09:49:16;20.20;51.20
10300;DHT22;5195;48.562;9.192;2023-05-10T09:51:42;20.60;51.00
10300;DHT22;5195;48.562;9.192;2023-05-10T09:54:12;21.00;50.20
10300;DHT22;5195;48.562;9.192;2023-05-10T09:56:34;21.00;50.10
10300;DHT22;5195;48.562;9.192;2023-05-10T09:59:03;20.80;51.00
10300;DHT22;5195;48.562;9.192;2023-05-10T10:01:29;20.90;48.60
10300;DHT22;5195;48.562;9.192;2023-05-10T10:03:55;20.90;50.10
10300;DHT22;5195;48.562;9.192;2023-05-10T10:06:21;21.00;47.60
10300;DHT22;5195;48.562;9.192;2023-05-10T10:08:46;21.30;46.50
10300;DHT22;5195;48.562;9.192;2023-05-10T10:11:12;21.40;48.80
10300;DHT22;5195;48.562;9.192;2023-05-10T10:13:37;21.40;46.80
10300;DHT22;5195;48.562;9.192;2023-05-10T10:16:03;21.50;48.50
10300;DHT22;5195;48.562;9.192;2023-05-10T10:18:29;21.40;49.50
10300;DHT22;5195;48.562;9.192;2023-05-10T10:20:54;21.60;47.70
10300;DHT22;5195;48.562;9.192;2023-05-10T10:23:20;22.00;47.00
10300;DHT22;5195;48.562;9.192;2023-05-10T10:29:25;22.00;46.20
10300;DHT22;5195;48.562;9.192;2023-05-10T10:34:38;21.60;48.00
10300;DHT22;5195;48.562;9.192;2023-05-10T10:37:06;21.30;47.70
10300;DHT22;5195;48.562;9.192;2023-05-10T10:39:31;21.40;47.50
10300;DHT22;5195;48.562;9.192;2023-05-10T10:41:57;21.10;48.80
10300;DHT22;5195;48.562;9.192;2023-05-10T10:49:42;21.00;49.20
10300;DHT22;5195;48.562;9.192;2023-05-10T10:52:22;20.80;50.60
10300;DHT22;5195;48.562;9.192;2023-05-10T10:54:49;20.60;51.40
10300;DHT22;5195;48.562;9.192;2023-05-10T10:57:17;20.10;52.10
10300;DHT22;5195;48.562;9.192;2023-05-10T10:59:43;19.90;52.40
10300;DHT22;5195;48.562;9.192;2023-05-10T11:02:09;19.80;52.30
10300;DHT22;5195;48.562;9.192;2023-05-10T11:04:42;20.00;50.70
10300;DHT22;5195;48.562;9.192;2023-05-10T11:07:18;20.20;50.60
10300;DHT22;5195;48.562;9.192;2023-05-10T11:09:43;20.30;51.20
10300;DHT22;5195;48.562;9.192;2023-05-10T11:12:08;20.10;51.00
10300;DHT22;5195;48.562;9.192;2023-05-10T11:14:34;19.90;51.50
10300;DHT22;5195;48.562;9.192;2023-05-10T11:17:00;19.40;52.40
10300;DHT22;5195;48.562;9.192;2023-05-10T11:19:27;19.00;51.50
10300;DHT22;5195;48.562;9.192;2023-05-10T11:21:51;18.70;52.20
10300;DHT22;5195;48.562;9.192;2023-05-10T11:24:17;18.50;52.00
10300;DHT22;5195;48.562;9.192;2023-05-10T11:26:42;17.90;52.50
10300;DHT22;5195;48.562;9.192;2023-05-10T11:29:07;17.60;52.40
10300;DHT22;5195;48.562;9.192;2023-05-10T11:31:34;17.10;53.00
10300;DHT22;5195;48.562;9.192;2023-05-10T11:33:59;17.00;53.10
10300;DHT22;5195;48.562;9.192;2023-05-10T11:36:35;16.70;54.00
10300;DHT22;5195;48.562;9.192;2023-05-10T11:39:00;16.70;54.10
10300;DHT22;5195;48.562;9.192;2023-05-10T11:41:27;16.90;54.40
10300;DHT22;5195;48.562;9.192;2023-05-10T11:43:52;16.40;55.60
10300;DHT22;5195;48.562;9.192;2023-05-10T11:46:18;16.40;55.60
10300;DHT22;5195;48.562;9.192;2023-05-10T11:48:43;16.20;56.20
10300;DHT22;5195;48.562;9.192;2023-05-10T11:51:09;16.00;56.80
10300;DHT22;5195;48.562;9.192;2023-05-10T11:53:34;15.80;57.50
10300;DHT22;5195;48.562;9.192;2023-05-10T11:56:08;15.80;58.10
10300;DHT22;5195;48.562;9.192;2023-05-10T11:58:34;16.10;58.40
10300;DHT22;5195;48.562;9.192;2023-05-10T12:01:00;16.30;58.60
10300;DHT22;5195;48.562;9.192;2023-05-10T12:03:25;16.60;58.40
10300;DHT22;5195;48.562;9.192;2023-05-10T12:05:52;16.70;59.20
10300;DHT22;5195;48.562;9.192;2023-05-10T12:08:28;16.70;59.20
10300;DHT22;5195;48.562;9.192;2023-05-10T12:10:43;16.70;59.60
10300;DHT22;5195;48.562;9.192;2023-05-10T12:13:12;16.60;59.30
10300;DHT22;5195;48.562;9.192;2023-05-10T12:15:38;17.00;58.40
10300;DHT22;5195;48.562;9.192;2023-05-10T12:18:03;17.00;57.60
10300;DHT22;5195;48.562;9.192;2023-05-10T12:20:29;17.30;57.80
10300;DHT22;5195;48.562;9.192;2023-05-10T12:22:56;17.60;57.80
10300;DHT22;5195;48.562;9.192;2023-05-10T12:25:22;17.60;57.70
10300;DHT22;5195;48.562;9.192;2023-05-10T12:27:54;17.90;56.20
10300;DHT22;5195;48.562;9.192;2023-05-10T12:30:20;18.30;57.50
10300;DHT22;5195;48.562;9.192;2023-05-10T12:32:45;18.20;58.10
10300;DHT22;5195;48.562;9.192;2023-05-10T12:35:11;18.40;57.50
10300;DHT22;5195;48.562;9.192;2023-05-10T12:37:37;18.40;57.40
10300;DHT22;5195;48.562;9.192;2023-05-10T12:40:03;18.40;57.80
10300;DHT22;5195;48.562;9.192;2023-05-10T12:42:28;18.30;58.00
10300;DHT22;5195;48.562;9.192;2023-05-10T12:44:57;18.50;55.10
10300;DHT22;5195;48.562;9.192;2023-05-10T12:47:23;18.90;55.60
10300;DHT22;5195;48.562;9.192;2023-05-10T12:49:48;18.90;55.60
10300;DHT22;5195;48.562;9.192;2023-05-10T12:52:15;18.90;54.40
10300;DHT22;5195;48.562;9.192;2023-05-10T12:54:40;18.80;53.70
10300;DHT22;5195;48.562;9.192;2023-05-10T12:57:06;18.70;54.60
10300;DHT22;5195;48.562;9.192;2023-05-10T12:59:31;18.80;51.70
10300;DHT22;5195;48.562;9.192;2023-05-10T13:01:57;18.80;52.50
10300;DHT22;5195;48.562;9.192;2023-05-10T13:04:23;18.70;52.70
10300;DHT22;5195;48.562;9.192;2023-05-10T13:06:48;18.60;53.20
10300;DHT22;5195;48.562;9.192;2023-05-10T13:09:14;18.80;50.10
10300;DHT22;5195;48.562;9.192;2023-05-10T13:11:40;19.10;48.00
10300;DHT22;5195;48.562;9.192;2023-05-10T13:14:06;19.10;48.00
10300;DHT22;5195;48.562;9.192;2023-05-10T13:16:31;19.20;49.70
10300;DHT22;5195;48.562;9.192;2023-05-10T13:18:57;19.20;50.70
10300;DHT22;5195;48.562;9.192;2023-05-10T13:21:23;19.40;47.80
10300;DHT22;5195;48.562;9.192;2023-05-10T13:23:49;19.40;48.40
10300;DHT22;5195;48.562;9.192;2023-05-10T13:26:16;19.20;50.60
10300;DHT22;5195;48.562;9.192;2023-05-10T13:28:43;19.20;50.60
10300;DHT22;5195;48.562;9.192;2023-05-10T13:31:07;19.40;46.60
10300;DHT22;5195;48.562;9.192;2023-05-10T13:33:34;19.40;49.70
10300;DHT22;5195;48.562;9.192;2023-05-10T13:35:59;19.40;49.60
10300;DHT22;5195;48.562;9.192;2023-05-10T13:38:25;19.30;50.50
10300;DHT22;5195;48.562;9.192;2023-05-10T13:40:52;19.20;50.80
10300;DHT22;5195;48.562;9.192;2023-05-10T13:43:17;19.40;48.10
10300;DHT22;5195;48.562;9.192;2023-05-10T13:45:43;19.50;49.10
10300;DHT22;5195;48.562;9.192;2023-05-10T13:48:08;19.60;47.00
10300;DHT22;5195;48.562;9.192;2023-05-10T13:50:34;20.00;46.80
10300;DHT22;5195;48.562;9.192;2023-05-10T13:52:59;20.20;46.20
10300;DHT22;5195;48.562;9.192;2023-05-10T13:55:26;20.60;44.40
10300;DHT22;5195;48.562;9.192;2023-05-10T13:57:53;20.70;44.60
10300;DHT22;5195;48.562;9.192;2023-05-10T14:00:19;20.80;46.20
10300;DHT22;5195;48.562;9.192;2023-05-10T14:02:46;20.80;45.70
10300;DHT22;5195;48.562;9.192;2023-05-10T14:05:11;20.80;45.70
10300;DHT22;5195;48.562;9.192;2023-05-10T14:07:37;20.60;47.00
10300;DHT22;5195;48.562;9.192;2023-05-10T14:10:03;20.50;45.90
10300;DHT22;5195;48.562;9.192;2023-05-10T14:12:28;20.70;46.60
10300;DHT22;5195;48.562;9.192;2023-05-10T14:14:56;20.70;47.50
10300;DHT22;5195;48.562;9.192;2023-05-10T14:17:22;20.60;45.80
10300;DHT22;5195;48.562;9.192;2023-05-10T14:19:48;20.60;45.70
10300;DHT22;5195;48.562;9.192;2023-05-10T14:22:13;20.50;47.30
10300;DHT22;5195;48.562;9.192;2023-05-10T14:24:39;20.50;45.80
10300;DHT22;5195;48.562;9.192;2023-05-10T14:27:04;20.50;47.20
10300;DHT22;5195;48.562;9.192;2023-05-10T14:29:30;20.50;46.60
10300;DHT22;5195;48.562;9.192;2023-05-10T14:31:57;20.50;47.50
10300;DHT22;5195;48.562;9.192;2023-05-10T14:34:22;20.30;48.50
10300;DHT22;5195;48.562;9.192;2023-05-10T14:36:48;20.20;48.90
10300;DHT22;5195;48.562;9.192;2023-05-10T14:39:13;20.00;49.30
10300;DHT22;5195;48.562;9.192;2023-05-10T14:41:40;20.50;46.20
10300;DHT22;5195;48.562;9.192;2023-05-10T14:44:08;20.50;46.20
10300;DHT22;5195;48.562;9.192;2023-05-10T14:46:34;20.80;45.70
10300;DHT22;5195;48.562;9.192;2023-05-10T14:48:59;21.00;45.10
10300;DHT22;5195;48.562;9.192;2023-05-10T14:51:26;20.80;46.20
10300;DHT22;5195;48.562;9.192;2023-05-10T14:53:51;20.80;46.20
10300;DHT22;5195;48.562;9.192;2023-05-10T14:56:17;21.00;45.50
10300;DHT22;5195;48.562;9.192;2023-05-10T14:58:42;21.20;45.00
10300;DHT22;5195;48.562;9.192;2023-05-10T15:01:08;21.30;45.50
10300;DHT22;5195;48.562;9.192;2023-05-10T15:03:33;21.40;45.10
10300;DHT22;5195;48.562;9.192;2023-05-10T15:05:59;21.40;45.00
10300;DHT22;5195;48.562;9.192;2023-05-10T15:08:25;21.20;46.20
10300;DHT22;5195;48.562;9.192;2023-05-10T15:10:51;20.90;46.70
10300;DHT22;5195;48.562;9.192;2023-05-10T15:13:16;20.90;46.70
10300;DHT22;5195;48.562;9.192;2023-05-10T15:15:42;20.90;46.00
10300;DHT22;5195;48.562;9.192;2023-05-10T15:18:08;21.10;45.00
10300;DHT22;5195;48.562;9.192;2023-05-10T15:20:34;21.00;46.40
10300;DHT22;5195;48.562;9.192;2023-05-10T15:23:00;20.70;47.20
10300;DHT22;5195;48.562;9.192;2023-05-10T15:25:27;20.50;47.90
10300;DHT22;5195;48.562;9.192;2023-05-10T15:27:52;20.50;44.70
10300;DHT22;5195;48.562;9.192;2023-05-10T15:30:19;20.40;47.80
10300;DHT22;5195;48.562;9.192;2023-05-10T15:32:44;20.40;47.70
10300;DHT22;5195;48.562;9.192;2023-05-10T15:35:10;20.50;45.70
10300;DHT22;5195;48.562;9.192;2023-05-10T15:37:37;20.50;46.80
10300;DHT22;5195;48.562;9.192;2023-05-10T15:40:02;20.60;45.10
10300;DHT22;5195;48.562;9.192;2023-05-10T15:42:28;20.90;44.00
10300;DHT22;5195;48.562;9.192;2023-05-10T15:44:53;20.80;45.60
10300;DHT22;5195;48.562;9.192;2023-05-10T15:47:19;20.50;46.60
10300;DHT22;5195;48.562;9.192;2023-05-10T15:49:44;20.30;47.60
10300;DHT22;5195;48.562;9.192;2023-05-10T15:52:10;20.20;48.10
10300;DHT22;5195;48.562;9.192;2023-05-10T15:54:35;20.00;48.00
10300;DHT22;5195;48.562;9.192;2023-05-10T15:57:02;20.20;46.00